Time;durP1;ratioP1;P1;durP2;ratioP2;P2;SDS_P1;SDS_P2;PMS_P1;PMS_P2;Temp;Humidity;BMP_temperature;BMP_pressure;BME280_temperature;BME280_humidity;BME280_pressure;Samples;Min_cycle;Max_cycle;Signal;HPM_P1;HPM_P2
2022/04/14 00:01:09;;;;;;;;;;;;;;;30.04;18.53;101216.34;5021997;28;869;-40
2022/04/14 00:03:34;;;;;;;;;;;;;;;29.74;18.50;101210.97;5022611;28;884;-39
2022/04/14 00:05:59;;;;;;;;;;;;;;;29.57;18.67;101215.72;5017200;28;854;-39
2022/04/14 00:08:25;;;;;;;;;;;;;;;30.43;18.13;101211.53;5016731;28;921;-37
2022/04/14 00:10:50;;;;;;;;;;;;;;;30.29;17.68;101212.44;5016998;28;1050;-40
2022/04/14 00:13:16;;;;;;;;;;;;;;;29.70;18.29;101212.38;5017605;28;813;-39
2022/04/14 00:15:42;;;;;;;;;;;;;;;29.46;18.63;101209.75;5017831;28;846;-39
2022/04/14 00:18:07;;;;;;;;;;;;;;;29.26;19.24;101211.38;5016971;28;1898;-36
2022/04/14 00:20:32;;;;;;;;;;;;;;;29.11;18.71;101211.34;5017026;28;838;-40
2022/04/14 00:22:59;;;;;;;;;;;;;;;28.99;19.16;101219.94;5016058;28;998;-38
2022/04/14 00:25:25;;;;;;;;;;;;;;;28.99;19.43;101219.09;5016808;28;1069;-39
2022/04/14 00:27:50;;;;;;;;;;;;;;;29.09;19.37;101219.66;5024712;28;877;-39
2022/04/14 00:30:15;;;;;;;;;;;;;;;29.15;19.16;101218.91;5029201;28;826;-39
2022/04/14 00:32:41;;;;;;;;;;;;;;;29.64;18.84;101219.41;5016617;28;830;-38
2022/04/14 00:35:06;;;;;;;;;;;;;;;29.99;18.24;101226.91;5016697;28;839;-39
2022/04/14 00:37:31;;;;;;;;;;;;;;;30.04;18.18;101223.63;5016617;28;1906;-38
2022/04/14 00:39:57;;;;;;;;;;;;;;;30.15;18.11;101217.69;5016859;28;1037;-38
2022/04/14 00:42:22;;;;;;;;;;;;;;;29.85;18.13;101219.63;5016681;28;818;-36
2022/04/14 00:44:47;;;;;;;;;;;;;;;29.63;18.44;101223.13;5016115;28;861;-39
2022/04/14 00:47:12;;;;;;;;;;;;;;;30.23;17.92;101227.59;5022729;28;738;-40
2022/04/14 00:49:38;;;;;;;;;;;;;;;30.61;17.61;101222.97;5015079;28;790;-38
2022/04/14 00:52:03;;;;;;;;;;;;;;;29.89;18.10;101220.94;5014999;28;810;-36
2022/04/14 00:54:30;;;;;;;;;;;;;;;29.53;18.23;101212.56;5019959;28;836;-38
2022/04/14 00:56:59;;;;;;;;;;;;;;;29.26;18.52;101214.06;5016553;28;763;-38
2022/04/14 00:59:24;;;;;;;;;;;;;;;29.11;18.65;101211.34;5022360;28;1972;-37
2022/04/14 01:01:50;;;;;;;;;;;;;;;28.96;18.94;101209.44;5020191;28;854;-40
2022/04/14 01:04:15;;;;;;;;;;;;;;;29.02;19.39;101216.00;5019041;28;838;-39
2022/04/14 01:06:40;;;;;;;;;;;;;;;29.08;18.95;101212.53;5024738;28;865;-38
2022/04/14 01:09:21;;;;;;;;;;;;;;;29.08;19.23;101215.25;5020681;28;792;-40
2022/04/14 01:11:47;;;;;;;;;;;;;;;29.54;18.74;101213.41;5033410;28;798;-39
2022/04/14 01:14:20;;;;;;;;;;;;;;;29.93;18.15;101219.53;5039068;28;778;-38
2022/04/14 01:16:45;;;;;;;;;;;;;;;30.02;18.11;101217.53;5022245;28;838;-39
2022/04/14 01:19:10;;;;;;;;;;;;;;;30.10;17.90;101222.00;5022133;28;1906;-41
2022/04/14 01:21:35;;;;;;;;;;;;;;;29.77;18.23;101220.59;5020061;28;904;-37
2022/04/14 01:24:01;;;;;;;;;;;;;;;29.54;18.71;101213.41;5018570;28;763;-39
2022/04/14 01:26:26;;;;;;;;;;;;;;;30.48;17.89;101220.97;5033275;28;1044;-39
2022/04/14 01:28:52;;;;;;;;;;;;;;;30.25;17.60;101227.41;5020079;28;774;-38
2022/04/14 01:31:17;;;;;;;;;;;;;;;29.63;18.51;101211.47;5031843;28;832;-39
2022/04/14 01:33:42;;;;;;;;;;;;;;;29.48;18.76;101217.69;5020678;28;873;-38
2022/04/14 01:36:08;;;;;;;;;;;;;;;29.26;18.80;101220.31;5019776;28;778;-39
2022/04/14 01:38:34;;;;;;;;;;;;;;;29.05;18.84;101218.34;5019348;28;1902;-40
2022/04/14 01:40:59;;;;;;;;;;;;;;;28.98;18.89;101217.41;5019900;28;855;-41
2022/04/14 01:43:25;;;;;;;;;;;;;;;28.85;19.17;101219.69;5019545;28;868;-39
2022/04/14 01:45:51;;;;;;;;;;;;;;;29.19;19.43;101217.53;5024620;28;982;-39
2022/04/14 01:48:16;;;;;;;;;;;;;;;29.26;19.18;101216.78;5019996;28;817;-36
2022/04/14 01:50:42;;;;;;;;;;;;;;;29.50;19.00;101214.78;5019069;28;841;-38
2022/04/14 01:53:07;;;;;;;;;;;;;;;29.79;18.56;101219.38;5019775;28;731;-39
2022/04/14 01:55:32;;;;;;;;;;;;;;;29.74;18.63;101216.41;5019506;28;823;-40
2022/04/14 01:57:58;;;;;;;;;;;;;;;30.10;18.33;101216.56;5023209;28;1926;-39
2022/04/14 02:00:23;;;;;;;;;;;;;;;30.12;18.22;101219.94;5022263;28;874;-39
2022/04/14 02:02:48;;;;;;;;;;;;;;;29.81;18.43;101211.06;5019608;28;821;-38
2022/04/14 02:05:13;;;;;;;;;;;;;;;29.91;18.73;101218.91;5018625;28;893;-39
2022/04/14 02:07:39;;;;;;;;;;;;;;;29.91;18.50;101217.00;5019535;28;833;-39
2022/04/14 02:10:04;;;;;;;;;;;;;;;29.89;18.40;101216.38;5020177;28;770;-38
2022/04/14 02:12:30;;;;;;;;;;;;;;;29.91;18.43;101221.59;5038155;28;758;-38
2022/04/14 02:14:55;;;;;;;;;;;;;;;30.09;18.45;101218.47;5037214;28;734;-39
2022/04/14 02:17:20;;;;;;;;;;;;;;;30.26;17.93;101221.78;5019320;28;1963;-39
2022/04/14 02:19:47;;;;;;;;;;;;;;;30.06;18.39;101214.25;5019056;28;774;-40
2022/04/14 02:22:12;;;;;;;;;;;;;;;30.18;18.56;101224.59;5037670;28;939;-38
2022/04/14 02:24:40;;;;;;;;;;;;;;;30.60;17.85;101216.69;5019182;28;805;-39
2022/04/14 02:27:06;;;;;;;;;;;;;;;30.16;17.87;101110.00;5019248;28;1033;-39
2022/04/14 02:29:31;;;;;;;;;;;;;;;30.28;17.73;101210.75;5019559;28;780;-38
2022/04/14 02:31:57;;;;;;;;;;;;;;;29.53;17.83;101214.44;5024271;28;904;-39
2022/04/14 02:34:26;;;;;;;;;;;;;;;29.34;17.87;101205.84;5018629;28;859;-38
2022/04/14 02:36:51;;;;;;;;;;;;;;;29.37;18.49;101212.75;5024175;28;871;-37
2022/04/14 02:39:16;;;;;;;;;;;;;;;29.29;18.49;101211.84;5018537;28;1965;-38
2022/04/14 02:41:42;;;;;;;;;;;;;;;29.28;18.12;101214.72;5018443;28;785;-38
2022/04/14 02:44:07;;;;;;;;;;;;;;;29.51;18.05;101220.03;5018636;28;762;-36
2022/04/14 02:46:32;;;;;;;;;;;;;;;29.95;17.25;101222.88;5021791;28;834;-39
2022/04/14 02:48:58;;;;;;;;;;;;;;;29.99;17.19;101213.34;5020460;28;839;-39
2022/04/14 02:51:23;;;;;;;;;;;;;;;30.19;17.01;101221.72;5018763;28;850;-39
2022/04/14 02:53:48;;;;;;;;;;;;;;;30.16;16.47;101222.06;5018603;28;805;-40
2022/04/14 02:56:13;;;;;;;;;;;;;;;29.43;16.97;101222.84;5018528;28;1040;-39
2022/04/14 02:58:39;;;;;;;;;;;;;;;29.28;17.43;101217.44;5017943;28;1899;-40
2022/04/14 03:01:04;;;;;;;;;;;;;;;29.81;17.00;101221.91;5024799;28;842;-40
2022/04/14 03:03:29;;;;;;;;;;;;;;;29.84;16.83;101226.94;5018383;28;837;-36
2022/04/14 03:05:55;;;;;;;;;;;;;;;29.91;17.02;101227.84;5018341;28;841;-39
2022/04/14 03:08:20;;;;;;;;;;;;;;;30.08;16.73;101224.91;5018164;28;826;-38
2022/04/14 03:10:46;;;;;;;;;;;;;;;30.05;16.65;101230.72;5018005;28;804;-37
2022/04/14 03:13:11;;;;;;;;;;;;;;;29.42;17.10;101232.00;5018587;28;822;-40
2022/04/14 03:15:36;;;;;;;;;;;;;;;29.07;17.28;101230.69;5024219;28;775;-41
2022/04/14 03:18:02;;;;;;;;;;;;;;;30.02;16.72;101233.81;5017714;28;1959;-39
2022/04/14 03:20:27;;;;;;;;;;;;;;;30.30;16.35;101235.81;5017936;28;806;-37
2022/04/14 03:22:52;;;;;;;;;;;;;;;30.25;16.21;101235.53;5017963;28;890;-38
2022/04/14 03:25:18;;;;;;;;;;;;;;;29.24;16.93;101233.22;5018287;28;811;-39
2022/04/14 03:27:43;;;;;;;;;;;;;;;28.80;17.28;101234.78;5021916;28;962;-38
2022/04/14 03:30:10;;;;;;;;;;;;;;;28.57;17.60;101230.25;5020437;28;1192;-39
2022/04/14 03:32:42;;;;;;;;;;;;;;;29.10;17.38;101245.72;5025463;28;1588;-39
2022/04/14 03:35:07;;;;;;;;;;;;;;;29.52;17.22;101245.25;5021535;28;1250;-39
2022/04/14 03:37:33;;;;;;;;;;;;;;;29.21;17.07;101241.72;5017945;28;1899;-40
2022/04/14 03:39:58;;;;;;;;;;;;;;;29.20;17.39;101240.03;5025583;28;1504;-39
2022/04/14 03:42:23;;;;;;;;;;;;;;;29.62;16.66;101245.00;5036074;28;787;-40
2022/04/14 03:44:49;;;;;;;;;;;;;;;29.08;16.86;101248.59;5036824;28;920;-33
2022/04/14 03:47:15;;;;;;;;;;;;;;;28.66;16.78;101252.69;5019380;28;739;-37
2022/04/14 03:49:40;;;;;;;;;;;;;;;28.57;16.56;101252.75;5017375;28;734;-37
2022/04/14 03:52:05;;;;;;;;;;;;;;;28.62;16.29;101251.34;5020432;28;917;-39
2022/04/14 03:54:31;;;;;;;;;;;;;;;28.41;16.53;101252.88;5018027;28;1347;-36
2022/04/14 03:56:56;;;;;;;;;;;;;;;28.44;16.29;101252.50;5019566;28;1426;-37
2022/04/14 03:59:21;;;;;;;;;;;;;;;28.94;15.71;101258.38;5016665;28;1968;-38
2022/04/14 04:01:47;;;;;;;;;;;;;;;29.20;15.67;101259.00;5016552;28;983;-34
2022/04/14 04:04:12;;;;;;;;;;;;;;;29.39;15.71;101254.91;5019146;28;847;-35
2022/04/14 04:06:37;;;;;;;;;;;;;;;29.46;16.18;101263.13;5021576;28;838;-36
2022/04/14 04:09:03;;;;;;;;;;;;;;;29.64;16.05;101256.50;5017182;28;846;-39
2022/04/14 04:11:28;;;;;;;;;;;;;;;29.68;16.00;101261.38;5017473;28;735;-38
2022/04/14 04:13:53;;;;;;;;;;;;;;;29.78;15.93;101262.97;5017368;28;862;-39
2022/04/14 04:16:19;;;;;;;;;;;;;;;29.81;16.10;101262.59;5021319;28;849;-37
2022/04/14 04:18:44;;;;;;;;;;;;;;;29.97;16.18;101266.09;5025777;28;2043;-36
2022/04/14 04:21:09;;;;;;;;;;;;;;;30.03;16.90;101274.31;5034209;28;1484;-40
2022/04/14 04:23:35;;;;;;;;;;;;;;;28.34;19.12;101266.28;5023437;28;803;-39
2022/04/14 04:26:00;;;;;;;;;;;;;;;28.07;19.32;101271.13;5035584;28;1072;-37
2022/04/14 04:28:30;;;;;;;;;;;;;;;29.48;17.63;101274.59;5017315;28;802;-38
2022/04/14 04:30:56;;;;;;;;;;;;;;;29.64;17.56;101268.22;5028856;28;819;-36
2022/04/14 04:33:21;;;;;;;;;;;;;;;29.56;17.78;101282.66;5016894;28;866;-37
2022/04/14 04:35:46;;;;;;;;;;;;;;;29.58;17.74;101268.91;5016843;28;1610;-39
2022/04/14 04:38:11;;;;;;;;;;;;;;;29.66;17.64;101276.97;5015921;28;1915;-41
2022/04/14 04:40:38;;;;;;;;;;;;;;;29.27;18.26;101269.94;5016697;28;995;-37
2022/04/14 04:43:03;;;;;;;;;;;;;;;28.30;19.65;101283.84;5018744;28;882;-36
2022/04/14 04:45:29;;;;;;;;;;;;;;;28.34;19.46;101277.91;5017598;28;995;-37
2022/04/14 04:47:54;;;;;;;;;;;;;;;28.78;19.07;101270.16;5016288;28;794;-37
2022/04/14 04:50:19;;;;;;;;;;;;;;;28.55;19.52;101281.00;5016620;28;892;-37
2022/04/14 04:52:45;;;;;;;;;;;;;;;28.46;19.52;101282.94;5016732;28;892;-36
2022/04/14 04:55:10;;;;;;;;;;;;;;;29.45;18.25;101283.13;5017834;28;838;-38
2022/04/14 04:57:35;;;;;;;;;;;;;;;29.25;18.71;101293.66;5019647;28;1981;-38
2022/04/14 05:00:01;;;;;;;;;;;;;;;28.38;19.81;101281.09;5017947;28;856;-34
2022/04/14 05:02:26;;;;;;;;;;;;;;;27.78;20.55;101278.03;5020107;28;817;-38
2022/04/14 05:04:52;;;;;;;;;;;;;;;28.35;20.17;101278.75;5016524;28;794;-37
2022/04/14 05:07:17;;;;;;;;;;;;;;;28.27;20.12;101278.78;5016634;28;818;-34
2022/04/14 05:09:42;;;;;;;;;;;;;;;28.03;20.53;101296.84;5017226;28;1080;-37
2022/04/14 05:12:08;;;;;;;;;;;;;;;28.95;19.37;101297.09;5016053;28;905;-36
2022/04/14 05:14:33;;;;;;;;;;;;;;;29.34;18.93;101296.09;5016461;28;816;-35
2022/04/14 05:16:58;;;;;;;;;;;;;;;29.06;19.04;101298.59;5019448;28;1078;-37
2022/04/14 05:19:23;;;;;;;;;;;;;;;28.05;20.30;101298.34;5015766;28;1969;-37
2022/04/14 05:21:49;;;;;;;;;;;;;;;27.75;20.77;101308.94;5020026;28;809;-35
2022/04/14 05:24:14;;;;;;;;;;;;;;;28.49;20.08;101304.22;5016156;28;1457;-39
2022/04/14 05:26:40;;;;;;;;;;;;;;;28.08;20.67;101316.06;5025015;28;1517;-39
2022/04/14 05:29:06;;;;;;;;;;;;;;;27.95;20.61;101306.66;5016440;28;839;-37
2022/04/14 05:31:31;;;;;;;;;;;;;;;27.95;20.53;101311.22;5018488;28;959;-37
2022/04/14 05:33:56;;;;;;;;;;;;;;;27.36;21.24;101311.34;5016208;28;823;-31
2022/04/14 05:36:22;;;;;;;;;;;;;;;27.13;21.37;101306.66;5016259;28;847;-36
2022/04/14 05:38:47;;;;;;;;;;;;;;;27.08;21.77;101306.31;5015509;28;1951;-36
2022/04/14 05:41:12;;;;;;;;;;;;;;;26.91;21.93;101305.41;5016198;28;755;-37
2022/04/14 05:43:37;;;;;;;;;;;;;;;28.19;20.45;101313.00;5016298;28;932;-38
2022/04/14 05:46:03;;;;;;;;;;;;;;;27.95;20.87;101314.78;5016093;28;952;-36
2022/04/14 05:48:29;;;;;;;;;;;;;;;27.85;20.90;101317.69;5018747;28;741;-38
2022/04/14 05:50:54;;;;;;;;;;;;;;;29.25;19.49;101305.34;5018059;28;822;-36
2022/04/14 05:53:22;;;;;;;;;;;;;;;29.37;19.34;101319.28;5019552;28;897;-35
2022/04/14 05:55:47;;;;;;;;;;;;;;;29.40;19.38;101308.06;5018933;28;968;-37
2022/04/14 05:58:12;;;;;;;;;;;;;;;29.28;19.56;101309.56;5022932;28;1902;-37
2022/04/14 06:00:38;;;;;;;;;;;;;;;28.13;20.79;101320.97;5029693;28;1422;-35
2022/04/14 06:03:03;;;;;;;;;;;;;;;28.59;20.36;101315.63;5018963;28;905;-34
2022/04/14 06:05:29;;;;;;;;;;;;;;;29.15;19.59;101311.03;5019375;28;934;-35
2022/04/14 06:07:54;;;;;;;;;;;;;;;29.31;19.50;101312.72;5019622;28;817;-37
2022/04/14 06:10:20;;;;;;;;;;;;;;;29.46;19.55;101312.75;5018926;28;929;-36
2022/04/14 06:12:45;;;;;;;;;;;;;;;29.57;19.39;101308.75;5025192;28;1464;-38
2022/04/14 06:15:10;;;;;;;;;;;;;;;29.89;18.98;101310.44;5028410;28;1452;-35
2022/04/14 06:17:35;;;;;;;;;;;;;;;29.95;19.01;101306.97;5019241;28;1898;-37
2022/04/14 06:20:03;;;;;;;;;;;;;;;29.02;19.95;101308.94;5019223;28;803;-34
2022/04/14 06:22:28;;;;;;;;;;;;;;;28.30;21.11;101309.03;5019167;28;783;-36
2022/04/14 06:24:56;;;;;;;;;;;;;;;29.38;19.96;101312.81;5023097;28;774;-35
2022/04/14 06:27:21;;;;;;;;;;;;;;;29.77;19.74;101320.91;5025380;28;1045;-35
2022/04/14 06:29:46;;;;;;;;;;;;;;;29.82;19.75;101319.34;5018612;28;858;-34
2022/04/14 06:32:12;;;;;;;;;;;;;;;29.92;19.54;101323.63;5019780;28;806;-36
2022/04/14 06:34:37;;;;;;;;;;;;;;;29.92;19.49;101320.91;5018800;28;850;-38
2022/04/14 06:37:02;;;;;;;;;;;;;;;28.97;20.60;101324.88;5018672;28;854;-38
2022/04/14 06:39:28;;;;;;;;;;;;;;;28.24;21.55;101331.41;5019305;28;1894;-38
2022/04/14 06:41:53;;;;;;;;;;;;;;;28.59;21.28;101334.59;5018638;28;907;-37
2022/04/14 06:44:18;;;;;;;;;;;;;;;29.58;20.02;101337.53;5018644;28;838;-35
2022/04/14 06:46:44;;;;;;;;;;;;;;;29.70;20.01;101332.53;5024534;28;948;-38
2022/04/14 06:49:09;;;;;;;;;;;;;;;29.78;19.74;101333.47;5018214;28;853;-36
2022/04/14 06:51:34;;;;;;;;;;;;;;;29.88;19.74;101336.72;5022681;28;826;-38
2022/04/14 06:54:00;;;;;;;;;;;;;;;30.01;19.34;101329.81;5018470;28;747;-36
2022/04/14 06:56:25;;;;;;;;;;;;;;;29.15;20.30;101332.69;5018358;28;814;-37
2022/04/14 06:58:50;;;;;;;;;;;;;;;28.32;21.17;101330.50;5017967;28;1902;-38
2022/04/14 07:01:15;;;;;;;;;;;;;;;27.92;21.79;101336.75;5021844;28;889;-35
2022/04/14 07:03:41;;;;;;;;;;;;;;;27.68;22.16;101333.09;5018025;28;882;-37
2022/04/14 07:06:06;;;;;;;;;;;;;;;27.55;22.52;101343.56;5018345;28;837;-37
2022/04/14 07:08:33;;;;;;;;;;;;;;;27.47;22.47;101342.59;5017683;28;870;-36
2022/04/14 07:10:59;;;;;;;;;;;;;;;27.38;22.66;101335.47;5018012;28;854;-36
2022/04/14 07:13:24;;;;;;;;;;;;;;;27.41;22.63;101340.53;5018085;28;798;-36
2022/04/14 07:15:50;;;;;;;;;;;;;;;27.38;22.37;101346.28;5022505;28;841;-36
2022/04/14 07:18:15;;;;;;;;;;;;;;;27.22;22.75;101356.09;5018009;28;1894;-35
2022/04/14 07:20:40;;;;;;;;;;;;;;;27.21;22.76;101346.31;5017992;28;807;-33
2022/04/14 07:23:06;;;;;;;;;;;;;;;27.18;22.77;101352.03;5017649;28;743;-34
2022/04/14 07:25:33;;;;;;;;;;;;;;;27.07;22.77;101349.69;5018312;28;970;-35
2022/04/14 07:27:59;;;;;;;;;;;;;;;27.04;22.90;101344.63;5019193;28;845;-37
2022/04/14 07:30:26;;;;;;;;;;;;;;;27.02;23.10;101345.66;5023767;28;853;-37
2022/04/14 07:32:52;;;;;;;;;;;;;;;27.74;21.75;101347.81;5017708;28;1427;-35
2022/04/14 07:35:18;;;;;;;;;;;;;;;27.65;22.21;101348.78;5017920;28;903;-33
2022/04/14 07:37:45;;;;;;;;;;;;;;;27.45;22.02;101346.44;5016879;28;1898;-35
2022/04/14 07:40:10;;;;;;;;;;;;;;;27.09;22.79;101336.88;5017723;28;1063;-38
2022/04/14 07:42:40;;;;;;;;;;;;;;;27.10;22.60;101342.09;5019652;28;838;-35
2022/04/14 07:45:06;;;;;;;;;;;;;;;26.92;22.66;101331.44;5017916;28;833;-34
2022/04/14 07:47:31;;;;;;;;;;;;;;;26.84;23.15;101339.50;5019833;28;1327;-36
2022/04/14 07:49:56;;;;;;;;;;;;;;;26.76;23.11;101330.38;5017350;28;815;-34
2022/04/14 07:52:22;;;;;;;;;;;;;;;28.21;21.49;101331.75;5016888;28;882;-36
2022/04/14 07:54:47;;;;;;;;;;;;;;;28.96;20.61;101334.84;5022295;28;822;-35
2022/04/14 07:57:12;;;;;;;;;;;;;;;27.67;22.13;101328.69;5017005;28;803;-34
2022/04/14 07:59:38;;;;;;;;;;;;;;;27.34;22.41;101321.47;5017069;28;1968;-35
2022/04/14 08:02:03;;;;;;;;;;;;;;;27.17;22.69;101322.50;5019776;28;1039;-36
2022/04/14 08:04:30;;;;;;;;;;;;;;;27.04;22.74;101323.03;5017140;28;825;-36
2022/04/14 08:06:55;;;;;;;;;;;;;;;26.98;23.21;101322.66;5017764;28;838;-36
2022/04/14 08:09:20;;;;;;;;;;;;;;;26.87;22.97;101328.38;5016905;28;881;-36
2022/04/14 08:11:46;;;;;;;;;;;;;;;26.82;22.87;101322.63;5016620;28;1466;-38
2022/04/14 08:14:11;;;;;;;;;;;;;;;26.72;23.28;101325.50;5025352;28;1834;-36
2022/04/14 08:16:37;;;;;;;;;;;;;;;26.99;23.06;101321.63;5017629;28;1030;-37
2022/04/14 08:19:02;;;;;;;;;;;;;;;28.26;21.42;101323.09;5016989;28;1953;-35
2022/04/14 08:21:27;;;;;;;;;;;;;;;27.17;22.41;101323.38;5020799;28;841;-36
2022/04/14 08:23:53;;;;;;;;;;;;;;;26.92;22.73;101328.72;5016829;28;1095;-32
2022/04/14 08:26:18;;;;;;;;;;;;;;;26.84;22.79;101331.41;5017895;28;1066;-35
2022/04/14 08:28:44;;;;;;;;;;;;;;;26.70;23.30;101325.66;5016887;28;870;-37
2022/04/14 08:31:09;;;;;;;;;;;;;;;26.65;23.31;101328.88;5022007;28;1473;-33
2022/04/14 08:33:35;;;;;;;;;;;;;;;27.16;23.28;101328.94;5016782;28;819;-36
2022/04/14 08:36:01;;;;;;;;;;;;;;;28.61;21.31;101331.72;5017111;28;861;-38
2022/04/14 08:38:26;;;;;;;;;;;;;;;27.99;21.37;101326.91;5016580;28;1898;-38
2022/04/14 08:40:54;;;;;;;;;;;;;;;27.46;22.33;101329.25;5016662;28;779;-36
2022/04/14 08:43:19;;;;;;;;;;;;;;;27.30;22.44;101322.84;5015406;28;834;-34
2022/04/14 08:45:46;;;;;;;;;;;;;;;27.24;22.63;101323.53;5018614;28;1442;-37
2022/04/14 08:48:12;;;;;;;;;;;;;;;27.18;21.96;101316.94;5016738;28;818;-35
2022/04/14 08:50:38;;;;;;;;;;;;;;;27.16;22.60;101318.13;5016872;28;922;-36
2022/04/14 08:53:03;;;;;;;;;;;;;;;26.89;22.52;101310.16;5016088;28;812;-37
2022/04/14 08:55:29;;;;;;;;;;;;;;;26.85;22.68;101314.19;5016287;28;822;-37
2022/04/14 08:57:54;;;;;;;;;;;;;;;26.84;22.75;101315.22;5017562;28;1906;-37
2022/04/14 09:00:20;;;;;;;;;;;;;;;26.66;23.25;101313.50;5022782;28;830;-32
2022/04/14 09:02:46;;;;;;;;;;;;;;;28.45;21.15;101311.84;5016168;28;823;-38
2022/04/14 09:05:16;;;;;;;;;;;;;;;27.66;21.72;101313.47;5016603;28;994;-36
2022/04/14 09:07:42;;;;;;;;;;;;;;;27.26;22.63;101313.38;5016404;28;814;-38
2022/04/14 09:10:07;;;;;;;;;;;;;;;28.57;21.06;101317.72;5016439;28;1118;-37
2022/04/14 09:12:35;;;;;;;;;;;;;;;27.90;21.82;101319.00;5018617;28;834;-36
2022/04/14 09:15:00;;;;;;;;;;;;;;;27.41;22.22;101307.31;5016404;28;915;-37
2022/04/14 09:17:26;;;;;;;;;;;;;;;27.25;22.44;101312.56;5031350;28;1967;-35
2022/04/14 09:19:51;;;;;;;;;;;;;;;27.13;22.49;101305.78;5016855;28;876;-34
2022/04/14 09:22:17;;;;;;;;;;;;;;;27.10;22.57;101300.75;5014078;28;972;-36
2022/04/14 09:24:42;;;;;;;;;;;;;;;27.04;22.63;101307.69;5021811;28;834;-34
2022/04/14 09:27:08;;;;;;;;;;;;;;;27.17;22.18;101307.16;5020763;28;1239;-35
2022/04/14 09:29:33;;;;;;;;;;;;;;;27.06;22.37;101296.69;5019750;28;830;-37
2022/04/14 09:31:58;;;;;;;;;;;;;;;27.04;22.47;101298.72;5025150;28;934;-37
2022/04/14 09:34:45;;;;;;;;;;;;;;;26.97;22.53;101287.72;5019960;28;854;-36
2022/04/14 09:37:11;;;;;;;;;;;;;;;26.93;22.88;101287.22;5025595;28;826;-36
2022/04/14 09:39:49;;;;;;;;;;;;;;;27.16;23.01;101300.03;5019846;28;1902;-35
2022/04/14 09:42:15;;;;;;;;;;;;;;;27.70;21.95;101293.25;5020143;28;763;-35
2022/04/14 09:44:40;;;;;;;;;;;;;;;27.28;22.56;101288.94;5018686;28;786;-36
2022/04/14 09:47:05;;;;;;;;;;;;;;;27.18;22.54;101298.03;5022843;28;967;-38
2022/04/14 09:49:31;;;;;;;;;;;;;;;27.09;22.94;101296.34;5024260;28;897;-38
2022/04/14 09:51:56;;;;;;;;;;;;;;;27.19;22.93;101297.03;5019306;28;814;-37
2022/04/14 09:54:27;;;;;;;;;;;;;;;28.83;21.06;101292.13;5019953;28;855;-34
2022/04/14 09:56:54;;;;;;;;;;;;;;;27.68;21.96;101286.28;5019875;28;853;-35
2022/04/14 09:59:20;;;;;;;;;;;;;;;27.50;22.23;101295.44;5018982;28;1985;-36
2022/04/14 10:01:45;;;;;;;;;;;;;;;27.38;22.24;101293.13;5021855;28;1078;-33
2022/04/14 10:04:29;;;;;;;;;;;;;;;27.33;22.20;101281.97;5019372;28;819;-36
2022/04/14 10:07:02;;;;;;;;;;;;;;;27.18;22.17;101286.38;5019311;28;835;-36
2022/04/14 10:09:28;;;;;;;;;;;;;;;27.17;22.71;101284.69;5018383;28;1134;-35
2022/04/14 10:11:54;;;;;;;;;;;;;;;27.14;22.82;101281.31;5019519;28;754;-34
2022/04/14 10:14:23;;;;;;;;;;;;;;;27.15;22.64;101279.47;5019321;28;802;-37
2022/04/14 10:16:48;;;;;;;;;;;;;;;28.41;21.67;101277.22;5038748;28;829;-37
2022/04/14 10:19:13;;;;;;;;;;;;;;;28.17;21.67;101287.13;5038239;28;1973;-34
2022/04/14 10:21:39;;;;;;;;;;;;;;;27.71;22.27;101281.41;5037623;28;877;-36
2022/04/14 10:24:05;;;;;;;;;;;;;;;27.43;22.75;101272.81;5038271;28;847;-36
2022/04/14 10:26:33;;;;;;;;;;;;;;;27.28;22.69;101268.13;5028194;28;1144;-38
2022/04/14 10:28:58;;;;;;;;;;;;;;;27.31;22.56;101264.25;5017609;28;892;-33
2022/04/14 10:31:24;;;;;;;;;;;;;;;27.21;23.09;101273.38;5022194;28;1064;-38
2022/04/14 10:33:49;;;;;;;;;;;;;;;27.19;22.81;101267.31;5017688;28;984;-38
2022/04/14 10:36:14;;;;;;;;;;;;;;;28.58;21.32;101277.94;5018297;28;912;-36
2022/04/14 10:38:40;;;;;;;;;;;;;;;28.25;21.70;101276.25;5018693;28;1951;-34
2022/04/14 10:41:16;;;;;;;;;;;;;;;27.65;22.45;101268.56;5020030;28;1528;-33
2022/04/14 10:43:42;;;;;;;;;;;;;;;27.46;22.65;101270.63;5016771;28;1095;-37
2022/04/14 10:46:07;;;;;;;;;;;;;;;27.41;23.35;101270.31;5021451;28;868;-34
2022/04/14 10:48:33;;;;;;;;;;;;;;;27.54;22.67;101271.63;5018882;28;994;-37
2022/04/14 10:51:18;;;;;;;;;;;;;;;27.37;22.83;101271.69;5018785;28;977;-34
2022/04/14 10:53:50;;;;;;;;;;;;;;;27.32;22.72;101268.63;5024342;28;785;-36
2022/04/14 10:56:36;;;;;;;;;;;;;;;27.36;22.99;101260.00;5018716;28;862;-37
2022/04/14 10:59:01;;;;;;;;;;;;;;;27.30;22.98;101263.41;5010692;28;1926;-34
2022/04/14 11:01:45;;;;;;;;;;;;;;;28.36;21.72;101269.66;5019173;28;994;-35
2022/04/14 11:04:29;;;;;;;;;;;;;;;28.19;21.72;101267.00;5032955;28;814;-34
2022/04/14 11:06:54;;;;;;;;;;;;;;;27.61;22.72;101270.75;5026469;28;888;-32
2022/04/14 11:09:38;;;;;;;;;;;;;;;27.48;22.67;101270.44;5018122;28;864;-35
2022/04/14 11:12:03;;;;;;;;;;;;;;;27.37;22.93;101264.41;5018419;28;739;-34
2022/04/14 11:14:29;;;;;;;;;;;;;;;27.33;23.04;101268.47;5017869;28;898;-34
2022/04/14 11:16:54;;;;;;;;;;;;;;;27.34;22.83;101264.75;5022333;28;1272;-37
2022/04/14 11:19:24;;;;;;;;;;;;;;;27.35;23.00;101266.44;5022640;28;1975;-32
2022/04/14 11:22:01;;;;;;;;;;;;;;;28.19;22.25;101276.97;5017763;28;794;-36
2022/04/14 11:24:35;;;;;;;;;;;;;;;28.08;22.01;101265.53;5018317;28;895;-36
2022/04/14 11:27:13;;;;;;;;;;;;;;;27.50;22.63;101263.88;5024100;28;970;-35
2022/04/14 11:29:39;;;;;;;;;;;;;;;27.42;22.82;101266.59;5018000;28;794;-35
2022/04/14 11:32:04;;;;;;;;;;;;;;;27.32;22.60;101261.38;5022419;28;983;-32
2022/04/14 11:34:33;;;;;;;;;;;;;;;27.26;22.79;101262.91;5017864;28;809;-33
2022/04/14 11:36:59;;;;;;;;;;;;;;;27.29;23.09;101252.78;5017600;28;897;-34
2022/04/14 11:39:25;;;;;;;;;;;;;;;27.36;22.65;101251.09;5017790;28;1910;-35
2022/04/14 11:41:52;;;;;;;;;;;;;;;27.20;23.00;101243.84;5017701;28;831;-34
2022/04/14 11:44:21;;;;;;;;;;;;;;;27.22;23.12;101239.13;5020926;28;838;-36
2022/04/14 11:46:47;;;;;;;;;;;;;;;27.14;23.28;101237.28;5019350;28;936;-35
2022/04/14 11:49:14;;;;;;;;;;;;;;;27.12;23.08;101240.16;5017034;28;747;-36
2022/04/14 11:51:40;;;;;;;;;;;;;;;27.09;22.98;101235.06;5017773;28;770;-33
2022/04/14 11:54:05;;;;;;;;;;;;;;;27.14;23.01;101237.28;5017646;28;759;-33
2022/04/14 11:56:30;;;;;;;;;;;;;;;28.82;21.12;101236.31;5017247;28;811;-36
2022/04/14 11:58:55;;;;;;;;;;;;;;;27.68;22.47;101241.22;5017518;28;1939;-34
2022/04/14 12:01:21;;;;;;;;;;;;;;;27.39;22.50;101234.53;5017198;28;855;-32
2022/04/14 12:03:46;;;;;;;;;;;;;;;27.33;22.94;101230.66;5017338;28;807;-37
2022/04/14 12:06:14;;;;;;;;;;;;;;;27.27;22.99;101234.03;5017064;28;803;-37
2022/04/14 12:08:39;;;;;;;;;;;;;;;27.15;23.13;101222.75;5017411;28;927;-35
2022/04/14 12:11:11;;;;;;;;;;;;;;;27.11;23.24;101221.44;5020339;28;829;-36
2022/04/14 12:13:36;;;;;;;;;;;;;;;27.24;23.10;101224.41;5016977;28;861;-35
2022/04/14 12:16:02;;;;;;;;;;;;;;;27.29;23.25;101220.38;5021990;28;900;-35
2022/04/14 12:18:27;;;;;;;;;;;;;;;27.16;23.00;101219.03;5017142;28;1906;-33
2022/04/14 12:20:52;;;;;;;;;;;;;;;28.95;21.17;101219.44;5016645;28;921;-32
2022/04/14 12:23:18;;;;;;;;;;;;;;;27.77;22.34;101224.94;5023398;28;809;-37
2022/04/14 12:25:43;;;;;;;;;;;;;;;27.63;22.82;101219.22;5019012;28;1041;-33
2022/04/14 12:28:08;;;;;;;;;;;;;;;27.47;22.93;101217.44;5019454;28;742;-33
2022/04/14 12:30:34;;;;;;;;;;;;;;;27.42;22.98;101217.97;5020142;28;900;-34
2022/04/14 12:33:00;;;;;;;;;;;;;;;27.37;23.13;101212.25;5016867;28;817;-34
2022/04/14 12:35:29;;;;;;;;;;;;;;;27.29;23.26;101207.72;5019048;28;782;-35
2022/04/14 12:37:54;;;;;;;;;;;;;;;27.26;23.22;101208.03;5017274;28;1902;-34
2022/04/14 12:40:24;;;;;;;;;;;;;;;27.32;23.27;101217.31;5015406;28;1266;-36
2022/04/14 12:42:49;;;;;;;;;;;;;;;27.27;23.43;101212.44;5015330;28;826;-34
2022/04/14 12:45:15;;;;;;;;;;;;;;;27.23;23.20;101209.25;5017710;28;940;-34
2022/04/14 12:47:44;;;;;;;;;;;;;;;27.99;22.75;101216.03;5018255;28;838;-33
2022/04/14 12:50:09;;;;;;;;;;;;;;;28.46;22.05;101208.00;5020247;28;988;-33